Terminal Aerodrome Forecast
Issued by NWS Pendleton, OR

Home | Current Version | Previous Version | Text Only | Print | Product List | Glossary On
Versions: 1 2 3 4 5 6 7 8 9 10 11 12 13
000
FTUS46 KPDT 181700
TAFPDT
TAF
KPDT 181725Z 1818/1918 VRB03KT P6SM SKC
     FM181900 30007KT P6SM SCT200
     FM182100 32007KT P6SM SKC
     FM190300 14006KT P6SM SKC=

USA.gov is the U.S. government's official web portal to all federal, state and local government web resources and services.